Time;durP1;ratioP1;P1;durP2;ratioP2;P2;SDS_P1;SDS_P2;PMS_P1;PMS_P2;Temp;Humidity;BMP_temperature;BMP_pressure;BME280_temperature;BME280_humidity;BME280_pressure;Samples;Min_cycle;Max_cycle;Signal;HPM_P1;HPM_P2
2022/11/18 00:01:35;;;;;;;1.80;1.23;;;9.20;99.90;;;;;;5023424;28;20052;-77
2022/11/18 00:04:02;;;;;;;2.60;1.30;;;9.20;99.90;;;;;;5041122;28;20411;-78
2022/11/18 00:06:29;;;;;;;2.45;1.60;;;9.20;99.90;;;;;;5007386;28;20056;-77
2022/11/18 00:08:57;;;;;;;1.42;0.80;;;9.20;99.90;;;;;;5022893;28;20135;-78
2022/11/18 00:14:18;;;;;;;1.48;1.00;;;9.20;99.90;;;;;;5026349;28;20532;-78
2022/11/18 00:16:59;;;;;;;1.35;0.80;;;9.20;99.90;;;;;;5024909;28;20129;-78
2022/11/18 00:19:28;;;;;;;3.35;1.25;;;9.30;99.90;;;;;;5002392;28;20472;-78
2022/11/18 00:21:55;;;;;;;1.10;0.82;;;9.30;99.90;;;;;;5021728;28;20052;-78
2022/11/18 00:24:22;;;;;;;2.35;0.80;;;9.30;99.90;;;;;;5026511;28;20056;-77
2022/11/18 00:26:49;;;;;;;1.73;0.88;;;9.30;99.90;;;;;;5026901;28;20578;-78
2022/11/18 00:29:16;;;;;;;3.78;1.20;;;9.30;99.90;;;;;;5027273;28;20055;-78
2022/11/18 00:31:43;;;;;;;0.90;0.77;;;9.20;99.90;;;;;;5026748;28;20076;-78
2022/11/18 00:34:12;;;;;;;2.53;0.93;;;9.10;99.90;;;;;;5011202;28;20130;-78
2022/11/18 00:36:39;;;;;;;1.52;0.98;;;9.10;99.90;;;;;;5010853;28;20120;-78
2022/11/18 00:39:06;;;;;;;2.05;1.30;;;9.10;99.90;;;;;;5010154;28;20099;-78
2022/11/18 00:44:18;;;;;;;1.90;0.98;;;9.00;99.90;;;;;;5044236;28;20135;-78
2022/11/18 00:46:45;;;;;;;2.72;0.90;;;9.00;99.90;;;;;;5042981;28;20551;-77
2022/11/18 00:49:11;;;;;;;1.52;1.17;;;8.90;99.90;;;;;;5010650;28;20057;-78
2022/11/18 00:51:38;;;;;;;2.58;1.02;;;8.90;99.90;;;;;;5010330;28;20472;-78
2022/11/18 00:54:05;;;;;;;1.98;1.48;;;8.90;99.90;;;;;;5042835;28;20131;-78
2022/11/18 00:56:32;;;;;;;1.83;0.93;;;8.90;99.90;;;;;;5026609;28;20492;-78
2022/11/18 00:58:58;;;;;;;1.77;0.95;;;8.90;99.90;;;;;;5026849;28;20080;-78
2022/11/18 01:01:25;;;;;;;1.20;1.00;;;8.90;99.90;;;;;;5043341;28;20140;-78
2022/11/18 01:03:52;;;;;;;1.75;0.90;;;8.90;99.90;;;;;;5042429;28;20056;-77
2022/11/18 01:06:19;;;;;;;1.55;0.85;;;8.90;99.90;;;;;;5026374;28;20060;-78
2022/11/18 01:08:46;;;;;;;1.30;1.20;;;8.90;99.90;;;;;;5042757;28;20053;-78
2022/11/18 01:13:58;;;;;;;1.95;1.00;;;8.90;99.90;;;;;;5044739;28;20055;-78
2022/11/18 01:16:26;;;;;;;2.33;1.05;;;8.90;99.90;;;;;;5054588;28;20044;-78
2022/11/18 01:18:53;;;;;;;2.80;1.17;;;8.90;99.90;;;;;;5029642;28;20052;-78
2022/11/18 01:21:20;;;;;;;1.13;0.70;;;8.90;99.90;;;;;;5049111;28;20895;-77
2022/11/18 01:23:46;;;;;;;1.15;0.93;;;8.90;99.90;;;;;;5032869;28;20056;-77
2022/11/18 01:26:14;;;;;;;1.45;1.00;;;9.00;99.90;;;;;;5032519;28;20131;-77
2022/11/18 01:28:41;;;;;;;1.10;0.73;;;9.00;99.90;;;;;;5048830;28;20650;-77
2022/11/18 01:31:16;;;;;;;3.25;1.40;;;9.00;99.90;;;;;;5032886;28;20044;-76
2022/11/18 01:33:43;;;;;;;6.25;1.60;;;9.00;99.90;;;;;;5048491;28;20155;-77
2022/11/18 01:36:18;;;;;;;2.83;0.80;;;9.00;99.90;;;;;;5049026;28;20048;-77
2022/11/18 01:38:45;;;;;;;1.27;1.00;;;9.10;99.90;;;;;;5032215;28;20044;-77
2022/11/18 01:41:13;;;;;;;2.35;1.15;;;9.10;99.90;;;;;;5032608;28;20052;-77
2022/11/18 01:43:52;;;;;;;1.63;0.90;;;9.10;99.90;;;;;;5032920;28;20661;-78
2022/11/18 01:46:19;;;;;;;1.67;0.80;;;9.10;99.90;;;;;;5066900;28;20048;-77
2022/11/18 01:48:47;;;;;;;1.95;0.82;;;9.20;99.90;;;;;;5048581;28;20663;-77
2022/11/18 01:51:15;;;;;;;3.28;1.55;;;9.10;99.90;;;;;;5031970;28;20436;-77
2022/11/18 01:53:58;;;;;;;1.55;1.05;;;9.20;99.90;;;;;;5047795;28;20053;-77
2022/11/18 01:56:32;;;;;;;2.22;0.93;;;9.20;99.90;;;;;;5049146;28;20444;-78
2022/11/18 01:59:02;;;;;;;1.90;1.00;;;9.20;99.90;;;;;;5032506;28;20052;-77
2022/11/18 02:01:29;;;;;;;1.65;1.00;;;9.20;99.90;;;;;;5048846;28;20076;-77
2022/11/18 02:03:56;;;;;;;1.42;0.90;;;9.20;99.90;;;;;;5047939;28;20052;-77
2022/11/18 02:06:23;;;;;;;1.40;0.90;;;9.20;99.90;;;;;;5048419;28;20080;-77
2022/11/18 02:08:50;;;;;;;2.03;1.10;;;9.20;99.90;;;;;;5047570;28;20075;-77
2022/11/18 02:14:03;;;;;;;2.90;1.10;;;9.20;99.90;;;;;;5051256;28;20052;-77
2022/11/18 02:17:08;;;;;;;1.85;0.93;;;9.20;99.90;;;;;;5031994;28;20097;-77
2022/11/18 02:19:47;;;;;;;3.25;1.00;;;9.20;99.90;;;;;;5065619;28;20143;-77
2022/11/18 02:22:41;;;;;;;1.83;1.10;;;9.20;99.90;;;;;;5065510;28;20052;-77
2022/11/18 02:25:42;;;;;;;1.48;0.88;;;9.10;99.90;;;;;;5064794;28;20380;-78
2022/11/18 02:28:39;;;;;;;4.45;1.50;;;9.10;99.90;;;;;;5065874;28;20045;-77
2022/11/18 02:31:44;;;;;;;2.17;1.08;;;9.10;99.90;;;;;;5066734;28;20053;-77
2022/11/18 02:34:10;;;;;;;;;;;9.10;99.90;;;;;;5043693;28;20427;-77
2022/11/18 02:37:11;;;;;;;2.90;1.10;;;9.10;99.90;;;;;;5044517;28;19921;-77
2022/11/18 02:39:41;;;;;;;1.70;0.95;;;9.10;99.90;;;;;;4960447;28;20215;-77
2022/11/18 02:42:09;;;;;;;3.97;1.67;;;9.10;99.90;;;;;;5026777;28;20151;-77
2022/11/18 02:44:37;;;;;;;1.95;0.85;;;9.00;99.90;;;;;;5017146;28;20055;-77
2022/11/18 02:47:05;;;;;;;1.17;0.80;;;9.00;99.90;;;;;;5045976;28;20052;-77
2022/11/18 02:49:35;;;;;;;4.30;1.27;;;9.00;99.90;;;;;;5048292;28;20135;-77
2022/11/18 02:52:02;;;;;;;2.15;1.05;;;9.00;99.90;;;;;;5031002;28;20059;-77
2022/11/18 02:54:29;;;;;;;2.30;1.00;;;9.00;99.90;;;;;;5047207;28;20182;-77
2022/11/18 02:56:56;;;;;;;1.10;0.68;;;9.00;99.90;;;;;;5031235;28;20045;-77
2022/11/18 02:59:23;;;;;;;1.23;0.80;;;9.00;99.90;;;;;;5015382;28;20152;-77
2022/11/18 03:01:49;;;;;;;2.33;1.20;;;8.90;99.90;;;;;;5031122;28;20172;-77
2022/11/18 03:04:16;;;;;;;0.80;0.80;;;8.90;99.90;;;;;;5014603;28;20069;-77
2022/11/18 03:07:06;;;;;;;1.83;1.20;;;8.90;99.90;;;;;;5047731;28;20505;-77
2022/11/18 03:09:35;;;;;;;1.65;1.02;;;8.90;99.90;;;;;;5041717;28;20141;-77
2022/11/18 03:12:29;;;;;;;2.45;0.82;;;8.90;99.90;;;;;;5047274;28;20048;-78
2022/11/18 03:15:05;;;;;;;1.80;0.80;;;8.90;99.90;;;;;;5047307;28;20048;-77
2022/11/18 03:18:06;;;;;;;3.03;0.88;;;8.90;99.90;;;;;;5065664;28;20052;-77
2022/11/18 03:20:37;;;;;;;4.57;1.10;;;8.80;99.90;;;;;;5046913;28;20071;-77
2022/11/18 03:23:19;;;;;;;1.05;0.90;;;8.80;99.90;;;;;;5047490;28;20049;-76
2022/11/18 03:25:49;;;;;;;3.35;0.90;;;8.80;99.90;;;;;;5030783;28;20052;-77
2022/11/18 03:28:29;;;;;;;3.13;0.90;;;8.80;99.90;;;;;;5047229;28;20044;-77
2022/11/18 03:31:05;;;;;;;3.17;1.10;;;8.70;99.90;;;;;;5031065;28;20076;-77
2022/11/18 03:33:34;;;;;;;1.50;0.95;;;8.80;99.90;;;;;;5030127;28;20458;-77
2022/11/18 03:36:04;;;;;;;1.50;0.80;;;8.70;99.90;;;;;;5046681;28;20045;-77
2022/11/18 03:38:32;;;;;;;1.20;0.60;;;8.70;99.90;;;;;;5029944;28;20044;-77
2022/11/18 03:41:00;;;;;;;1.48;0.85;;;8.70;99.90;;;;;;5030279;28;20502;-77
2022/11/18 03:43:30;;;;;;;2.05;0.90;;;8.70;99.90;;;;;;5047008;28;20055;-77
2022/11/18 03:46:08;;;;;;;1.70;0.90;;;8.70;99.90;;;;;;5046910;28;20637;-77
2022/11/18 03:48:41;;;;;;;1.15;0.80;;;8.70;99.90;;;;;;5046402;28;20564;-77
2022/11/18 03:51:09;;;;;;;2.13;1.10;;;8.70;99.90;;;;;;5030066;28;20056;-77
2022/11/18 03:53:39;;;;;;;1.58;0.73;;;8.70;99.90;;;;;;5046027;28;20048;-77
2022/11/18 03:56:28;;;;;;;0.57;0.57;;;8.70;99.90;;;;;;5046930;28;20324;-77
2022/11/18 03:59:20;;;;;;;0.98;0.77;;;8.70;99.90;;;;;;5047214;28;20052;-77
2022/11/18 04:01:59;;;;;;;0.80;0.70;;;8.70;99.90;;;;;;5047255;28;20060;-77
2022/11/18 04:04:26;;;;;;;4.00;1.00;;;8.80;99.90;;;;;;5046212;28;20053;-77
2022/11/18 04:07:22;;;;;;;1.48;0.90;;;8.80;99.90;;;;;;5046953;28;20140;-77
2022/11/18 04:10:09;;;;;;;1.27;0.80;;;8.80;99.90;;;;;;5064132;28;20080;-77
2022/11/18 04:13:04;;;;;;;1.92;1.20;;;8.80;99.90;;;;;;5047468;28;20670;-78
2022/11/18 04:15:32;;;;;;;1.60;0.90;;;8.80;99.90;;;;;;5046974;28;20095;-77
2022/11/18 04:17:59;;;;;;;1.40;0.60;;;8.80;99.90;;;;;;5046744;28;20060;-77
2022/11/18 04:20:26;;;;;;;2.13;0.90;;;8.80;99.90;;;;;;5046474;28;20148;-77
2022/11/18 04:22:52;;;;;;;1.35;0.63;;;8.80;99.90;;;;;;5047279;28;20063;-77
2022/11/18 04:25:19;;;;;;;2.53;0.95;;;8.80;99.90;;;;;;5029027;28;20052;-77
2022/11/18 04:27:46;;;;;;;1.13;0.70;;;8.90;99.90;;;;;;5046770;28;20059;-77
2022/11/18 04:30:13;;;;;;;1.63;0.85;;;8.80;99.90;;;;;;5030237;28;20091;-79
2022/11/18 04:32:40;;;;;;;2.08;0.70;;;8.80;99.90;;;;;;5030461;28;20049;-76
2022/11/18 04:35:07;;;;;;;4.88;1.50;;;8.80;99.90;;;;;;5045865;28;20048;-77
2022/11/18 04:37:33;;;;;;;0.82;0.60;;;8.80;99.90;;;;;;5030784;28;20131;-77
2022/11/18 04:40:00;;;;;;;1.52;0.70;;;8.80;99.90;;;;;;5045984;28;20040;-77
2022/11/18 04:42:27;;;;;;;2.15;0.90;;;8.80;99.90;;;;;;5047367;28;20064;-77
2022/11/18 04:44:54;;;;;;;1.35;0.80;;;8.80;99.90;;;;;;5046905;28;20151;-77
2022/11/18 04:47:20;;;;;;;1.15;0.80;;;8.80;99.90;;;;;;5046407;28;20083;-77
2022/11/18 04:49:47;;;;;;;1.00;0.88;;;8.80;99.90;;;;;;5029876;28;20044;-77
2022/11/18 04:52:14;;;;;;;4.22;1.77;;;8.80;99.90;;;;;;5046332;28;20491;-77
2022/11/18 04:54:41;;;;;;;0.70;0.70;;;8.80;99.90;;;;;;5045848;28;20132;-77
2022/11/18 04:57:07;;;;;;;0.65;0.60;;;8.80;99.90;;;;;;5029675;28;20664;-77
2022/11/18 04:59:34;;;;;;;0.98;0.55;;;8.80;99.90;;;;;;5047130;28;20052;-77
2022/11/18 05:02:01;;;;;;;3.25;0.90;;;8.80;99.90;;;;;;5046751;28;20079;-77
2022/11/18 05:04:29;;;;;;;1.55;0.90;;;8.80;99.90;;;;;;5033210;28;20538;-77
2022/11/18 05:06:56;;;;;;;2.05;0.80;;;8.80;99.90;;;;;;5050205;28;20133;-77
2022/11/18 05:09:23;;;;;;;1.65;1.00;;;8.90;99.90;;;;;;5049209;28;20060;-78
2022/11/18 05:14:42;;;;;;;0.85;0.80;;;8.90;99.90;;;;;;5052857;28;20049;-77
2022/11/18 05:17:15;;;;;;;2.13;1.30;;;8.80;99.90;;;;;;5035384;28;20052;-76
2022/11/18 05:19:42;;;;;;;7.65;1.23;;;8.90;99.90;;;;;;5048887;28;20052;-77
2022/11/18 05:22:09;;;;;;;2.28;0.77;;;8.80;99.90;;;;;;5050091;28;20128;-77
2022/11/18 05:24:36;;;;;;;2.50;1.05;;;8.90;99.90;;;;;;5032487;28;20132;-78
2022/11/18 05:27:03;;;;;;;2.15;0.95;;;8.90;99.90;;;;;;5049287;28;20040;-77
2022/11/18 05:29:30;;;;;;;2.30;0.80;;;8.90;99.90;;;;;;5032720;28;20523;-78
2022/11/18 05:31:56;;;;;;;0.93;0.68;;;8.90;99.90;;;;;;5033130;28;20054;-78
2022/11/18 05:34:23;;;;;;;1.40;0.70;;;8.90;99.90;;;;;;5032458;28;20135;-78
2022/11/18 05:36:50;;;;;;;1.15;0.63;;;8.90;99.90;;;;;;5049109;28;20541;-78
2022/11/18 05:39:17;;;;;;;2.30;1.00;;;8.90;99.90;;;;;;5032421;28;20053;-78
2022/11/18 05:44:30;;;;;;;1.08;0.80;;;8.90;99.90;;;;;;5051813;28;20054;-78
2022/11/18 05:46:56;;;;;;;1.90;1.10;;;8.90;99.90;;;;;;5049275;28;20211;-78
2022/11/18 05:49:23;;;;;;;1.80;0.95;;;8.90;99.90;;;;;;5018030;28;20255;-78
2022/11/18 05:51:50;;;;;;;1.08;0.60;;;9.00;99.90;;;;;;4994664;28;20049;-77
2022/11/18 05:54:17;;;;;;;0.65;0.60;;;8.90;99.90;;;;;;5020263;28;20139;-77
2022/11/18 05:56:44;;;;;;;1.15;0.73;;;8.90;99.90;;;;;;5030480;28;20078;-79
2022/11/18 05:59:12;;;;;;;2.15;1.00;;;8.90;99.90;;;;;;5030869;28;20059;-78
2022/11/18 06:01:41;;;;;;;2.72;0.90;;;8.90;99.90;;;;;;5046678;28;20132;-77
2022/11/18 06:04:15;;;;;;;1.17;0.70;;;8.90;99.90;;;;;;5025284;28;20457;-78
2022/11/18 06:06:43;;;;;;;1.52;0.82;;;8.90;99.90;;;;;;5041049;28;20079;-79
2022/11/18 06:09:10;;;;;;;1.90;0.77;;;9.00;99.90;;;;;;5001382;28;20140;-79
2022/11/18 06:11:40;;;;;;;1.77;0.93;;;8.90;99.90;;;;;;5041621;28;20041;-78
2022/11/18 06:14:10;;;;;;;1.25;0.73;;;8.90;99.90;;;;;;5019552;28;20037;-77
2022/11/18 06:16:37;;;;;;;1.35;0.80;;;8.90;99.90;;;;;;5044809;28;20040;-78
2022/11/18 06:19:06;;;;;;;0.88;0.70;;;9.00;99.90;;;;;;5018385;28;20149;-78
2022/11/18 06:21:33;;;;;;;1.13;0.82;;;8.90;99.90;;;;;;5045105;28;20045;-78
2022/11/18 06:24:01;;;;;;;1.48;0.93;;;8.90;99.90;;;;;;5028689;28;20059;-79
2022/11/18 06:26:28;;;;;;;1.17;0.80;;;8.90;99.90;;;;;;5037614;28;20048;-78
2022/11/18 06:28:55;;;;;;;1.48;1.00;;;9.00;99.90;;;;;;5037492;28;20237;-77
2022/11/18 06:31:22;;;;;;;0.70;0.70;;;9.00;99.90;;;;;;5026128;28;20049;-77
2022/11/18 06:33:49;;;;;;;0.82;0.68;;;8.90;99.90;;;;;;5055009;28;20562;-77
2022/11/18 06:36:15;;;;;;;1.65;0.90;;;9.00;99.90;;;;;;5038615;28;20055;-77
2022/11/18 06:38:42;;;;;;;1.33;0.70;;;9.00;99.90;;;;;;5054398;28;20167;-78
2022/11/18 06:41:09;;;;;;;3.35;0.95;;;9.00;99.90;;;;;;5020047;28;20067;-78
2022/11/18 06:43:40;;;;;;;1.58;0.70;;;9.00;99.90;;;;;;5038895;28;20050;-77
2022/11/18 06:49:01;;;;;;;;;;;9.00;99.90;;;;;;5039640;28;20057;-79
2022/11/18 06:51:28;;;;;;;1.10;0.90;;;9.00;99.90;;;;;;5059454;28;19936;-80
2022/11/18 06:53:55;;;;;;;1.13;0.60;;;9.00;99.90;;;;;;5041934;28;20052;-79
2022/11/18 06:56:22;;;;;;;1.45;0.75;;;8.90;99.90;;;;;;5060285;28;20172;-80
2022/11/18 06:58:54;;;;;;;1.13;0.70;;;8.90;99.90;;;;;;5040571;28;20049;-79
2022/11/18 07:01:22;;;;;;;0.93;0.77;;;8.90;99.90;;;;;;5024929;28;20087;-79
2022/11/18 07:03:49;;;;;;;1.55;0.95;;;8.90;99.90;;;;;;5031699;28;20542;-80
2022/11/18 07:06:18;;;;;;;1.67;1.00;;;8.90;99.90;;;;;;5039972;28;20174;-79
2022/11/18 07:08:45;;;;;;;1.65;1.10;;;8.90;99.90;;;;;;5035401;28;20135;-80
2022/11/18 07:11:13;;;;;;;2.22;1.00;;;8.90;99.90;;;;;;5038845;28;20155;-79
2022/11/18 07:13:40;;;;;;;1.77;1.17;;;9.00;99.90;;;;;;5039815;28;20049;-80
2022/11/18 07:16:17;;;;;;;2.25;0.80;;;8.90;99.90;;;;;;5041773;28;20079;-79
2022/11/18 07:18:44;;;;;;;2.10;1.10;;;8.90;99.90;;;;;;5036034;28;20458;-79
2022/11/18 07:21:22;;;;;;;0.68;0.68;;;8.90;99.90;;;;;;5031121;28;20055;-79
2022/11/18 07:23:49;;;;;;;1.23;0.90;;;8.90;99.90;;;;;;5035426;28;20056;-79
2022/11/18 07:26:16;;;;;;;1.52;0.90;;;8.80;99.90;;;;;;5020706;28;20160;-79
2022/11/18 07:28:43;;;;;;;1.02;0.73;;;8.80;99.90;;;;;;5023281;28;20443;-79
2022/11/18 07:31:14;;;;;;;1.27;0.90;;;8.80;99.90;;;;;;5034410;28;20048;-79
2022/11/18 07:33:42;;;;;;;1.95;1.00;;;8.70;99.90;;;;;;5046256;28;20376;-79
2022/11/18 07:36:13;;;;;;;1.77;0.90;;;8.70;99.90;;;;;;5040269;28;20403;-79
2022/11/18 07:38:40;;;;;;;2.92;1.00;;;8.70;99.90;;;;;;5039562;28;20169;-79
2022/11/18 07:41:11;;;;;;;0.98;0.77;;;8.60;99.90;;;;;;5040361;28;20052;-78
2022/11/18 07:43:38;;;;;;;1.52;0.85;;;8.60;99.90;;;;;;5023213;28;20428;-80
2022/11/18 07:46:21;;;;;;;5.20;2.28;;;8.60;99.90;;;;;;5037614;28;20048;-79
2022/11/18 07:48:49;;;;;;;2.33;1.48;;;8.60;99.90;;;;;;5055553;28;20048;-79
2022/11/18 07:51:17;;;;;;;3.15;1.30;;;8.60;99.90;;;;;;5035182;28;20063;-79
2022/11/18 07:53:44;;;;;;;1.17;1.00;;;8.60;99.90;;;;;;5035564;28;20493;-79
2022/11/18 07:56:11;;;;;;;3.60;1.00;;;8.60;99.90;;;;;;5038298;28;20139;-80
2022/11/18 07:58:38;;;;;;;2.58;0.93;;;8.60;99.90;;;;;;5016301;28;20044;-79
2022/11/18 08:01:09;;;;;;;1.17;0.70;;;8.60;99.90;;;;;;5028435;28;20052;-79
2022/11/18 08:03:36;;;;;;;0.98;0.70;;;8.70;99.90;;;;;;5017555;28;20586;-79
2022/11/18 08:06:05;;;;;;;3.15;1.05;;;8.70;99.90;;;;;;5040784;28;20056;-78
2022/11/18 08:08:31;;;;;;;1.73;0.82;;;8.70;99.90;;;;;;5035203;28;20060;-79
2022/11/18 08:10:59;;;;;;;1.63;1.00;;;8.80;99.90;;;;;;5033035;28;20132;-80
2022/11/18 08:13:26;;;;;;;1.30;0.77;;;8.80;99.90;;;;;;5012030;28;20143;-79
2022/11/18 08:15:53;;;;;;;1.42;0.88;;;8.80;99.90;;;;;;5043519;28;20049;-80
2022/11/18 08:18:20;;;;;;;3.40;0.93;;;8.90;99.90;;;;;;5055693;28;20139;-80
2022/11/18 08:20:48;;;;;;;1.75;0.88;;;8.90;99.90;;;;;;5001682;28;20124;-79
2022/11/18 08:23:15;;;;;;;2.17;1.10;;;8.90;99.90;;;;;;5014925;28;20124;-78
2022/11/18 08:25:43;;;;;;;1.23;0.80;;;8.90;99.90;;;;;;4998462;28;20132;-80
2022/11/18 08:28:10;;;;;;;4.18;1.52;;;8.90;99.90;;;;;;5020338;28;20049;-79
2022/11/18 08:30:37;;;;;;;1.38;0.90;;;9.00;99.90;;;;;;5004388;28;20061;-79
2022/11/18 08:33:04;;;;;;;1.00;0.80;;;9.00;99.90;;;;;;5004615;28;20579;-80
2022/11/18 08:35:31;;;;;;;4.97;1.48;;;9.00;99.90;;;;;;5006024;28;20527;-80
2022/11/18 08:37:58;;;;;;;1.77;0.88;;;9.00;99.90;;;;;;4997654;28;20060;-80
2022/11/18 08:40:25;;;;;;;2.03;1.13;;;9.00;99.90;;;;;;5013787;28;20140;-80
2022/11/18 08:42:52;;;;;;;2.22;0.90;;;9.00;99.90;;;;;;5022454;28;20049;-79
2022/11/18 08:45:19;;;;;;;1.75;0.80;;;9.00;99.90;;;;;;5025243;28;20045;-80
2022/11/18 08:47:45;;;;;;;2.17;1.00;;;9.10;99.90;;;;;;5022707;28;20045;-81
2022/11/18 08:50:12;;;;;;;1.35;0.90;;;9.10;99.90;;;;;;5002588;28;20073;-79
2022/11/18 08:52:39;;;;;;;1.70;0.82;;;9.20;99.90;;;;;;4988542;28;20136;-80
2022/11/18 08:55:06;;;;;;;2.67;1.48;;;9.20;99.90;;;;;;5017679;28;20599;-79
2022/11/18 08:57:34;;;;;;;2.60;1.10;;;9.20;99.90;;;;;;5009422;28;20071;-79
2022/11/18 09:00:02;;;;;;;3.13;1.40;;;9.20;99.90;;;;;;4998937;28;20130;-79
2022/11/18 09:02:28;;;;;;;2.15;1.38;;;9.30;99.90;;;;;;5008596;28;20228;-79
2022/11/18 09:04:55;;;;;;;1.52;0.80;;;9.30;99.90;;;;;;4990583;28;20528;-78
2022/11/18 09:07:22;;;;;;;2.08;0.95;;;9.30;99.90;;;;;;5026791;28;20080;-81
2022/11/18 09:09:49;;;;;;;3.90;1.55;;;9.40;99.90;;;;;;5008313;28;20068;-81
2022/11/18 09:12:16;;;;;;;3.30;0.90;;;9.40;99.90;;;;;;5025975;28;20053;-81
2022/11/18 09:14:44;;;;;;;3.05;1.10;;;9.40;99.90;;;;;;5010102;28;20063;-80
2022/11/18 09:17:30;;;;;;;2.03;1.20;;;9.40;99.90;;;;;;4997894;28;20848;-80
2022/11/18 09:19:57;;;;;;;2.88;1.00;;;9.50;99.90;;;;;;5021056;28;20135;-79
2022/11/18 09:22:24;;;;;;;3.10;0.95;;;9.50;99.90;;;;;;5045072;28;20768;-80
2022/11/18 09:24:51;;;;;;;2.72;1.08;;;9.50;99.90;;;;;;5025861;28;20063;-81
2022/11/18 09:27:18;;;;;;;3.40;1.60;;;9.50;99.90;;;;;;5045145;28;20538;-80
2022/11/18 09:29:44;;;;;;;3.75;1.33;;;9.50;99.90;;;;;;5028645;28;20053;-81
2022/11/18 09:32:11;;;;;;;1.58;0.90;;;9.40;99.90;;;;;;5021590;28;20053;-79
2022/11/18 09:34:38;;;;;;;2.83;0.90;;;9.40;99.90;;;;;;5007207;28;20109;-81
2022/11/18 09:37:06;;;;;;;1.63;0.80;;;9.40;99.90;;;;;;5044703;28;20056;-92
2022/11/18 09:39:35;;;;;;;2.88;1.13;;;9.40;99.90;;;;;;4996561;28;20147;-79
2022/11/18 09:42:30;;;;;;;2.70;1.40;;;9.50;99.90;;;;;;5030798;28;20047;-78
2022/11/18 09:45:06;;;;;;;2.60;1.20;;;9.50;99.90;;;;;;5038532;28;20048;-78
2022/11/18 09:47:40;;;;;;;1.33;0.90;;;9.50;99.90;;;;;;5061902;28;20060;-78
2022/11/18 09:50:12;;;;;;;3.25;1.10;;;9.60;99.90;;;;;;5058376;28;20114;-77
2022/11/18 09:53:05;;;;;;;2.65;1.00;;;9.60;99.90;;;;;;5031292;28;20072;-77
2022/11/18 09:55:33;;;;;;;2.85;1.33;;;9.60;99.90;;;;;;5062151;28;20158;-79
2022/11/18 09:58:00;;;;;;;3.10;1.25;;;9.60;99.90;;;;;;5043749;28;20036;-78
2022/11/18 10:00:29;;;;;;;2.45;1.00;;;9.70;99.90;;;;;;5043824;28;20060;-79
2022/11/18 10:03:08;;;;;;;2.30;1.38;;;9.70;99.90;;;;;;5040038;28;20053;-79
2022/11/18 10:05:59;;;;;;;2.05;0.90;;;9.70;99.90;;;;;;5005392;28;20048;-77
2022/11/18 10:08:27;;;;;;;5.53;1.13;;;9.80;99.90;;;;;;5041983;28;20051;-78
2022/11/18 10:11:15;;;;;;;4.85;1.20;;;9.80;99.90;;;;;;5026404;28;20060;-78
2022/11/18 10:14:09;;;;;;;4.28;1.50;;;9.80;99.90;;;;;;5045427;28;20092;-78
2022/11/18 10:16:48;;;;;;;2.13;1.00;;;9.90;99.90;;;;;;5044474;28;20055;-78
2022/11/18 10:19:42;;;;;;;2.05;1.00;;;9.90;99.90;;;;;;5043023;28;20063;-78
2022/11/18 10:22:29;;;;;;;1.85;1.25;;;10.00;99.90;;;;;;5027958;28;20059;-78
2022/11/18 10:24:56;;;;;;;3.33;1.13;;;10.10;99.90;;;;;;5043292;28;20127;-78
2022/11/18 10:27:26;;;;;;;3.75;1.20;;;10.10;99.90;;;;;;5026156;28;20561;-78
2022/11/18 10:29:54;;;;;;;2.50;1.40;;;10.10;99.90;;;;;;5044414;28;20040;-77
2022/11/18 10:32:21;;;;;;;1.88;0.90;;;10.10;99.90;;;;;;5042907;28;20058;-78
2022/11/18 10:34:50;;;;;;;2.15;0.90;;;10.20;99.90;;;;;;5042575;28;20075;-79
2022/11/18 10:37:38;;;;;;;2.80;1.05;;;10.20;99.90;;;;;;5043659;28;20044;-77
2022/11/18 10:40:26;;;;;;;1.95;0.93;;;10.30;99.90;;;;;;5026660;28;20593;-78
2022/11/18 10:42:52;;;;;;;3.47;1.58;;;10.30;99.90;;;;;;5040352;28;20700;-78
2022/11/18 10:45:22;;;;;;;3.10;1.30;;;10.30;99.90;;;;;;5041659;28;20082;-78
2022/11/18 10:48:08;;;;;;;3.10;1.15;;;10.30;99.90;;;;;;5050909;28;20128;-79
2022/11/18 10:50:42;;;;;;;4.13;1.52;;;10.40;99.90;;;;;;5051086;28;20067;-78
2022/11/18 10:53:34;;;;;;;3.33;1.38;;;10.40;99.90;;;;;;5021158;28;20263;-78
2022/11/18 10:56:01;;;;;;;1.98;1.20;;;10.50;99.90;;;;;;5061216;28;20053;-78
2022/11/18 10:58:30;;;;;;;2.05;1.23;;;10.60;99.90;;;;;;5040147;28;20075;-77
2022/11/18 11:01:20;;;;;;;2.80;1.33;;;10.60;99.90;;;;;;5043623;28;20129;-77
2022/11/18 11:04:01;;;;;;;3.60;1.13;;;10.70;99.90;;;;;;5017153;28;20048;-78
2022/11/18 11:06:30;;;;;;;2.75;1.65;;;10.70;99.90;;;;;;5059628;28;20133;-77
2022/11/18 11:09:28;;;;;;;3.20;1.33;;;10.70;99.90;;;;;;5025446;28;20529;-78
2022/11/18 11:11:55;;;;;;;1.65;0.90;;;10.80;99.90;;;;;;5039497;28;20132;-77
2022/11/18 11:14:26;;;;;;;1.35;1.00;;;10.90;99.90;;;;;;5055908;28;20363;-77
2022/11/18 11:17:11;;;;;;;2.88;1.30;;;11.00;99.90;;;;;;5057000;28;20932;-78
2022/11/18 11:19:58;;;;;;;2.72;1.20;;;11.00;99.90;;;;;;5012339;28;20078;-77
2022/11/18 11:22:25;;;;;;;1.85;1.00;;;11.00;99.90;;;;;;4990405;28;20152;-77
2022/11/18 11:24:52;;;;;;;4.10;1.48;;;11.00;99.90;;;;;;4992362;28;20821;-77
2022/11/18 11:27:56;;;;;;;3.50;1.33;;;11.00;99.90;;;;;;5019094;28;20450;-77
2022/11/18 11:30:50;;;;;;;3.20;1.45;;;11.10;99.90;;;;;;5006561;28;20183;-78
2022/11/18 11:33:38;;;;;;;3.17;1.50;;;11.10;99.90;;;;;;5007054;28;20110;-78
2022/11/18 11:36:11;;;;;;;2.25;1.45;;;11.20;99.90;;;;;;5005430;28;20048;-78
2022/11/18 11:39:07;;;;;;;2.78;1.20;;;11.30;99.90;;;;;;5022545;28;20090;-78
2022/11/18 11:41:46;;;;;;;5.18;1.80;;;11.40;99.90;;;;;;4995587;28;20053;-78
2022/11/18 11:44:37;;;;;;;2.53;1.30;;;11.50;99.90;;;;;;5007990;28;20073;-78
2022/11/18 11:49:52;;;;;;;2.05;1.38;;;11.70;99.90;;;;;;5038780;28;20051;-78
2022/11/18 11:52:45;;;;;;;1.48;0.88;;;11.80;99.90;;;;;;5020129;28;20049;-80
2022/11/18 11:55:41;;;;;;;4.07;1.80;;;11.90;99.90;;;;;;4996793;28;20080;-78
2022/11/18 11:58:28;;;;;;;2.22;1.40;;;12.00;99.90;;;;;;5006917;28;20044;-78
2022/11/18 12:01:19;;;;;;;2.75;1.17;;;12.20;99.90;;;;;;5023994;28;20060;-80
2022/11/18 12:03:58;;;;;;;2.92;1.20;;;12.40;99.90;;;;;;5026160;28;20067;-78
2022/11/18 12:06:25;;;;;;;2.08;1.35;;;12.50;99.90;;;;;;5024793;28;20074;-79
2022/11/18 12:09:21;;;;;;;1.33;1.10;;;12.50;99.90;;;;;;5007075;28;20052;-78
2022/11/18 12:11:57;;;;;;;2.80;1.38;;;12.60;99.90;;;;;;5042637;28;20053;-79
2022/11/18 12:14:39;;;;;;;1.42;1.15;;;12.80;99.90;;;;;;5027605;28;20060;-78
2022/11/18 12:17:22;;;;;;;2.35;1.33;;;13.00;99.90;;;;;;5027623;28;20048;-78
2022/11/18 12:19:50;;;;;;;2.67;1.50;;;13.10;99.90;;;;;;5042092;28;20049;-79
2022/11/18 12:22:17;;;;;;;2.17;1.25;;;13.10;99.90;;;;;;5046856;28;20060;-76
2022/11/18 12:24:44;;;;;;;2.95;1.58;;;13.20;99.90;;;;;;5064967;28;20080;-77
2022/11/18 12:27:37;;;;;;;1.75;1.13;;;13.40;99.90;;;;;;5064036;28;20334;-77
2022/11/18 12:30:04;;;;;;;1.35;0.93;;;13.40;99.90;;;;;;5058968;28;20048;-78
2022/11/18 12:32:45;;;;;;;2.70;1.08;;;13.60;99.90;;;;;;5042012;28;20140;-77
2022/11/18 12:35:12;;;;;;;1.80;1.15;;;13.80;99.90;;;;;;5026914;28;20060;-78
2022/11/18 12:37:43;;;;;;;1.33;1.05;;;13.80;99.90;;;;;;5046172;28;20128;-77
2022/11/18 12:40:32;;;;;;;2.00;1.00;;;13.90;99.90;;;;;;5032117;28;20052;-78
2022/11/18 12:45:44;;;;;;;1.38;0.82;;;14.30;99.90;;;;;;5045457;28;20099;-77
2022/11/18 12:48:40;;;;;;;3.00;1.20;;;14.00;99.90;;;;;;5057669;28;20048;-78
2022/11/18 12:51:13;;;;;;;1.65;1.02;;;13.80;99.90;;;;;;5016222;28;20148;-78
2022/11/18 12:53:46;;;;;;;2.15;1.08;;;14.00;99.90;;;;;;5059746;28;20044;-78
2022/11/18 12:56:16;;;;;;;2.42;0.93;;;13.90;99.90;;;;;;5021182;28;20052;-78
2022/11/18 12:58:50;;;;;;;1.75;1.10;;;14.20;99.90;;;;;;5056974;28;20933;-78
2022/11/18 13:01:18;;;;;;;1.77;1.10;;;14.30;99.90;;;;;;5044259;28;20084;-78
2022/11/18 13:03:45;;;;;;;1.42;0.75;;;14.70;99.90;;;;;;5024458;28;20053;-78
2022/11/18 13:06:27;;;;;;;1.38;0.70;;;14.70;99.90;;;;;;5038610;28;20076;-78
2022/11/18 13:09:03;;;;;;;1.67;0.80;;;14.50;99.90;;;;;;5039386;28;20052;-78
2022/11/18 13:11:45;;;;;;;1.10;0.90;;;14.20;99.90;;;;;;5027252;28;20443;-78
2022/11/18 13:17:56;;;;;;;2.25;1.00;;;13.90;99.90;;;;;;5034187;28;20051;-78
2022/11/18 13:20:30;;;;;;;1.38;0.70;;;13.70;99.90;;;;;;5055075;28;20060;-78
2022/11/18 13:26:22;;;;;;;2.75;1.10;;;13.50;99.90;;;;;;5041811;28;20168;-78
2022/11/18 13:29:06;;;;;;;1.38;0.70;;;13.30;99.90;;;;;;5026065;28;20147;-78
2022/11/18 13:32:21;;;;;;;2.67;0.88;;;13.10;99.90;;;;;;5044943;28;20159;-78
2022/11/18 13:34:49;;;;;;;2.03;1.00;;;12.90;99.90;;;;;;4963827;28;20114;-78
2022/11/18 13:37:20;;;;;;;1.63;0.90;;;12.90;99.90;;;;;;4965261;28;20188;-78
2022/11/18 13:39:48;;;;;;;2.78;0.90;;;12.80;99.90;;;;;;4991103;28;20407;-78
2022/11/18 13:42:16;;;;;;;1.27;1.00;;;12.90;99.90;;;;;;5024708;28;20137;-78
2022/11/18 13:44:54;;;;;;;1.88;0.70;;;12.90;99.90;;;;;;5040884;28;20053;-78
2022/11/18 13:47:42;;;;;;;1.27;0.70;;;12.90;99.90;;;;;;5036175;28;20063;-79
2022/11/18 13:50:09;;;;;;;1.10;0.52;;;12.90;99.90;;;;;;5052255;28;20048;-78
2022/11/18 13:52:38;;;;;;;1.42;0.88;;;12.80;99.90;;;;;;5063968;28;20052;-78
2022/11/18 13:55:15;;;;;;;2.20;0.80;;;12.60;99.90;;;;;;5028409;28;20088;-78